Time,TemperatureF,DewpointF,PressureIn,WindDirection,WindDirectionDegrees,WindSpeedMPH,WindSpeedGustMPH,Humidity,HourlyPrecipIn,Conditions,Clouds,dailyrainin,SoftwareType,DateUTC
2013-06-25 00:01:00,73.8,68.0,29.90,SW,225,4.6,4.6,82,0.00,CLR,,0.00,WeatherDisplay:10.37,2013-06-25 04:01:00,
2013-06-25 00:02:00,73.8,68.0,29.90,SW,225,3.7,3.7,82,0.00,CLR,,0.00,WeatherDisplay:10.37,2013-06-25 04:02:00,
2013-06-25 00:03:00,73.8,68.0,29.90,SW,225,3.5,3.5,82,0.00,CLR,,0.00,WeatherDisplay:10.37,2013-06-25 04:03:00,
2013-06-25 00:08:00,73.8,68.0,29.90,WSW,248,2.3,2.3,82,0.00,CLR,,0.00,WeatherDisplay:10.37,2013-06-25 04:08:00,
2013-06-25 00:13:00,73.4,67.9,29.91,SW,225,2.3,2.6,83,0.00,CLR,,0.00,WeatherDisplay:10.37,2013-06-25 04:13:00,
2013-06-25 00:18:00,73.6,68.1,29.91,SW,225,2.7,2.7,83,0.00,CLR,,0.00,WeatherDisplay:10.37,2013-06-25 04:18:00,
2013-06-25 00:23:00,73.6,68.1,29.90,West,270,3.5,3.5,83,0.00,CLR,,0.00,WeatherDisplay:10.37,2013-06-25 04:23:00,
2013-06-25 00:28:00,73.6,68.1,29.90,WSW,248,3.5,3.5,83,0.00,CLR,,0.00,WeatherDisplay:10.37,2013-06-25 04:28:00,
2013-06-25 00:45:00,73.0,68.2,29.91,SW,225,3.5,3.5,85,0.00,CLR,,0.00,WeatherDisplay:10.37,2013-06-25 04:45:00,
2013-06-25 00:50:00,73.0,68.2,29.91,SW,225,4.6,4.6,85,0.00,CLR,,0.00,WeatherDisplay:10.37,2013-06-25 04:50:00,
2013-06-25 00:55:00,73.0,68.2,29.91,SSW,202,5.3,5.3,85,0.00,CLR,,0.00,WeatherDisplay:10.37,2013-06-25 04:55:00,
2013-06-25 01:00:00,73.0,68.2,29.91,SW,225,3.5,3.5,85,0.00,CLR,,0.00,WeatherDisplay:10.37,2013-06-25 05:00:00,
2013-06-25 01:05:00,72.9,68.1,29.91,SSW,202,3.7,3.7,85,0.00,BKN,,0.00,WeatherDisplay:10.37,2013-06-25 05:05:00,
2013-06-25 01:10:00,72.9,68.1,29.91,SW,225,4.6,4.6,85,0.00,BKN,,0.00,WeatherDisplay:10.37,2013-06-25 05:10:00,
2013-06-25 01:15:00,72.9,68.1,29.91,SSW,202,3.5,3.5,85,0.00,BKN,,0.00,WeatherDisplay:10.37,2013-06-25 05:15:00,
2013-06-25 01:20:00,72.9,68.5,29.91,WSW,248,4.6,4.6,86,0.00,BKN,,0.00,WeatherDisplay:10.37,2013-06-25 05:20:00,
2013-06-25 01:25:00,72.9,68.5,29.91,SW,225,4.6,4.7,86,0.00,BKN,,0.00,WeatherDisplay:10.37,2013-06-25 05:25:00,
2013-06-25 01:30:00,72.9,68.5,29.91,SW,225,5.8,5.8,86,0.00,BKN,,0.00,WeatherDisplay:10.37,2013-06-25 05:30:00,
2013-06-25 01:35:00,72.9,68.5,29.90,WSW,248,5.8,5.8,86,0.00,BKN,,0.00,WeatherDisplay:10.37,2013-06-25 05:35:00,
2013-06-25 01:40:00,72.9,68.5,29.90,SSW,202,4.6,4.6,86,0.00,BKN,,0.00,WeatherDisplay:10.37,2013-06-25 05:40:00,
2013-06-25 01:45:00,72.9,68.8,29.90,SW,225,4.6,4.6,87,0.00,BKN,,0.00,WeatherDisplay:10.37,2013-06-25 05:45:00,
2013-06-25 01:50:00,72.7,68.6,29.90,SW,225,4.6,4.6,87,0.00,BKN,,0.00,WeatherDisplay:10.37,2013-06-25 05:50:00,
2013-06-25 01:55:00,72.5,68.4,29.90,SW,225,4.6,4.6,87,0.00,BKN,,0.00,WeatherDisplay:10.37,2013-06-25 05:55:00,
2013-06-25 02:00:00,72.5,68.7,29.89,SSW,202,4.6,4.6,88,0.00,BKN,,0.00,WeatherDisplay:10.37,2013-06-25 06:00:00,
2013-06-25 02:05:00,72.3,68.5,29.89,SW,225,4.7,4.7,88,0.00,FEW,,0.00,WeatherDisplay:10.37,2013-06-25 06:05:00,
2013-06-25 02:10:00,72.3,68.5,29.89,WSW,248,5.8,5.8,88,0.00,FEW,,0.00,WeatherDisplay:10.37,2013-06-25 06:10:00,
2013-06-25 02:15:00,72.1,68.3,29.89,WSW,248,4.6,4.6,88,0.00,FEW,,0.00,WeatherDisplay:10.37,2013-06-25 06:15:00,
2013-06-25 02:20:00,72.0,68.6,29.89,WSW,248,4.6,4.6,89,0.00,FEW,,0.00,WeatherDisplay:10.37,2013-06-25 06:20:00,
2013-06-25 02:25:00,72.0,68.6,29.88,SW,225,4.7,4.7,89,0.00,FEW,,0.00,WeatherDisplay:10.37,2013-06-25 06:25:00,
2013-06-25 02:30:00,71.8,68.4,29.88,SW,225,5.8,5.8,89,0.00,FEW,,0.00,WeatherDisplay:10.37,2013-06-25 06:30:00,
2013-06-25 02:35:00,71.6,68.5,29.88,SW,225,4.6,4.6,90,0.00,FEW,,0.00,WeatherDisplay:10.37,2013-06-25 06:35:00,
2013-06-25 02:40:00,71.6,68.5,29.88,SW,225,4.6,4.6,90,0.00,FEW,,0.00,WeatherDisplay:10.37,2013-06-25 06:40:00,
2013-06-25 02:45:00,71.4,68.3,29.88,SSW,202,3.5,3.5,90,0.00,FEW,,0.00,WeatherDisplay:10.37,2013-06-25 06:45:00,
2013-06-25 02:50:00,71.2,68.1,29.88,WSW,248,4.6,4.6,90,0.00,FEW,,0.00,WeatherDisplay:10.37,2013-06-25 06:50:00,
2013-06-25 02:55:00,71.1,68.3,29.88,SW,225,2.7,2.7,91,0.00,FEW,,0.00,WeatherDisplay:10.37,2013-06-25 06:55:00,
2013-06-25 03:00:00,70.9,68.1,29.87,West,270,2.7,2.7,91,0.00,FEW,,0.00,WeatherDisplay:10.37,2013-06-25 07:00:00,
2013-06-25 03:05:00,70.7,67.9,29.87,SW,225,2.7,2.7,91,0.00,CLR,,0.00,WeatherDisplay:10.37,2013-06-25 07:05:00,
2013-06-25 03:10:00,70.7,68.3,29.87,WSW,248,2.3,2.3,92,0.00,CLR,,0.00,WeatherDisplay:10.37,2013-06-25 07:10:00,
2013-06-25 03:15:00,70.5,68.1,29.87,SW,225,2.2,2.2,92,0.00,CLR,,0.00,WeatherDisplay:10.37,2013-06-25 07:15:00,
2013-06-25 03:20:00,70.5,68.1,29.87,SW,225,2.3,2.3,92,0.00,CLR,,0.00,WeatherDisplay:10.37,2013-06-25 07:20:00,
2013-06-25 03:25:00,70.3,67.9,29.87,SSW,202,3.2,3.2,92,0.00,CLR,,0.00,WeatherDisplay:10.37,2013-06-25 07:25:00,
2013-06-25 03:30:00,70.2,67.8,29.87,SSW,202,2.3,2.3,92,0.00,CLR,,0.00,WeatherDisplay:10.37,2013-06-25 07:30:00,
2013-06-25 03:35:00,69.8,67.7,29.86,SSW,202,4.2,4.2,93,0.00,CLR,,0.00,WeatherDisplay:10.37,2013-06-25 07:35:00,
2013-06-25 03:40:00,69.8,67.7,29.86,SSE,158,2.2,2.2,93,0.00,CLR,,0.00,WeatherDisplay:10.37,2013-06-25 07:40:00,
2013-06-25 03:45:00,69.6,67.5,29.85,SSW,202,2.3,2.3,93,0.00,CLR,,0.00,WeatherDisplay:10.37,2013-06-25 07:45:00,
2013-06-25 03:50:00,69.4,67.3,29.85,East,90,1.1,1.1,93,0.00,CLR,,0.00,WeatherDisplay:10.37,2013-06-25 07:50:00,
2013-06-25 03:55:00,69.3,67.5,29.85,SW,225,2.3,2.3,94,0.00,CLR,,0.00,WeatherDisplay:10.37,2013-06-25 07:55:00,
2013-06-25 04:00:00,69.1,67.3,29.85,ESE,112,2.7,2.7,94,0.00,CLR,,0.00,WeatherDisplay:10.37,2013-06-25 08:00:00,
2013-06-25 04:05:00,69.3,67.5,29.85,ESE,112,2.2,2.2,94,0.00,CLR,,0.00,WeatherDisplay:10.37,2013-06-25 08:05:00,
2013-06-25 04:10:00,69.3,67.5,29.85,SW,225,1.1,1.1,94,0.00,CLR,,0.00,WeatherDisplay:10.37,2013-06-25 08:10:00,
2013-06-25 04:15:00,69.1,67.3,29.85,SW,225,1.7,1.7,94,0.00,CLR,,0.00,WeatherDisplay:10.37,2013-06-25 08:15:00,
2013-06-25 04:20:00,68.9,67.1,29.85,WSW,248,2.3,2.3,94,0.00,CLR,,0.00,WeatherDisplay:10.37,2013-06-25 08:20:00,
2013-06-25 04:25:00,68.7,66.9,29.85,SW,225,2.3,2.3,94,0.00,CLR,,0.00,WeatherDisplay:10.37,2013-06-25 08:25:00,
2013-06-25 04:30:00,68.5,67.0,29.85,SSE,158,1.1,0.0,95,0.00,CLR,,0.00,WeatherDisplay:10.37,2013-06-25 08:30:00,
2013-06-25 04:35:00,68.5,67.0,29.85,East,90,1.7,1.7,95,0.00,CLR,,0.00,WeatherDisplay:10.37,2013-06-25 08:35:00,
2013-06-25 04:40:00,68.5,67.0,29.85,SSE,158,2.3,2.3,95,0.00,CLR,,0.00,WeatherDisplay:10.37,2013-06-25 08:40:00,
2013-06-25 04:45:00,68.5,67.0,29.84,East,90,2.3,2.3,95,0.00,CLR,,0.00,WeatherDisplay:10.37,2013-06-25 08:45:00,
2013-06-25 04:50:00,68.4,66.9,29.84,SE,135,2.7,2.7,95,0.00,CLR,,0.00,WeatherDisplay:10.37,2013-06-25 08:50:00,
2013-06-25 04:55:00,68.5,67.0,29.84,South,180,2.3,2.3,95,0.00,CLR,,0.00,WeatherDisplay:10.37,2013-06-25 08:55:00,
2013-06-25 05:00:00,68.2,66.7,29.83,SW,225,3.7,3.7,95,0.00,CLR,,0.00,WeatherDisplay:10.37,2013-06-25 09:00:00,
2013-06-25 05:05:00,68.0,66.5,29.83,WSW,248,4.6,4.6,95,0.00,CLR,,0.00,WeatherDisplay:10.37,2013-06-25 09:05:00,
2013-06-25 05:10:00,67.6,66.4,29.85,West,270,4.6,4.6,96,0.00,CLR,,0.00,WeatherDisplay:10.37,2013-06-25 09:10:00,
2013-06-25 05:15:00,67.8,66.6,29.85,WSW,248,4.6,4.6,96,0.00,CLR,,0.00,WeatherDisplay:10.37,2013-06-25 09:15:00,
2013-06-25 05:20:00,68.0,66.8,29.85,WSW,248,3.7,3.7,96,0.00,CLR,,0.00,WeatherDisplay:10.37,2013-06-25 09:20:00,
2013-06-25 05:25:00,68.0,66.8,29.86,WSW,248,3.5,3.5,96,0.00,CLR,,0.00,WeatherDisplay:10.37,2013-06-25 09:25:00,
2013-06-25 05:30:00,68.0,66.8,29.86,SW,225,4.6,4.6,96,0.00,CLR,,0.00,WeatherDisplay:10.37,2013-06-25 09:30:00,
2013-06-25 05:35:00,68.0,66.8,29.85,West,270,2.3,2.3,96,0.00,CLR,,0.00,WeatherDisplay:10.37,2013-06-25 09:35:00,
2013-06-25 05:40:00,68.0,66.8,29.85,SW,225,2.3,2.3,96,0.00,CLR,,0.00,WeatherDisplay:10.37,2013-06-25 09:40:00,
2013-06-25 05:45:00,67.8,66.6,29.86,SW,225,2.3,2.3,96,0.00,CLR,,0.00,WeatherDisplay:10.37,2013-06-25 09:45:00,
2013-06-25 05:50:00,67.6,66.4,29.86,SW,225,3.5,3.5,96,0.00,CLR,,0.00,WeatherDisplay:10.37,2013-06-25 09:50:00,
2013-06-25 05:55:00,67.6,66.4,29.86,SW,225,2.7,2.7,96,0.00,CLR,,0.00,WeatherDisplay:10.37,2013-06-25 09:55:00,
2013-06-25 06:00:00,67.6,66.4,29.86,SW,225,3.5,3.5,96,0.00,CLR,,0.00,WeatherDisplay:10.37,2013-06-25 10:00:00,
2013-06-25 06:05:00,67.6,66.4,29.86,SW,225,1.7,1.7,96,0.00,CLR,,0.00,WeatherDisplay:10.37,2013-06-25 10:05:00,
2013-06-25 06:10:00,67.6,66.4,29.86,SW,225,3.5,3.5,96,0.00,CLR,,0.00,WeatherDisplay:10.37,2013-06-25 10:10:00,
2013-06-25 06:15:00,68.0,66.8,29.86,West,270,2.2,2.2,96,0.00,CLR,,0.00,WeatherDisplay:10.37,2013-06-25 10:15:00,
2013-06-25 06:20:00,68.2,67.0,29.86,West,270,3.5,3.5,96,0.00,CLR,,0.00,WeatherDisplay:10.37,2013-06-25 10:20:00,
2013-06-25 06:25:00,68.5,67.0,29.87,SW,225,2.3,2.3,95,0.00,CLR,,0.00,WeatherDisplay:10.37,2013-06-25 10:25:00,
2013-06-25 06:30:00,69.1,67.6,29.87,West,270,2.7,2.7,95,0.00,CLR,,0.00,WeatherDisplay:10.37,2013-06-25 10:30:00,
2013-06-25 06:35:00,69.4,67.6,29.87,SW,225,4.6,4.6,94,0.00,CLR,,0.00,WeatherDisplay:10.37,2013-06-25 10:35:00,
2013-06-25 06:40:00,69.8,67.7,29.87,SW,225,4.6,4.6,93,0.00,CLR,,0.00,WeatherDisplay:10.37,2013-06-25 10:40:00,
2013-06-25 06:45:00,70.3,67.9,29.87,SW,225,3.2,3.2,92,0.00,CLR,,0.00,WeatherDisplay:10.37,2013-06-25 10:45:00,
2013-06-25 06:50:00,70.7,68.3,29.87,WSW,248,2.7,2.7,92,0.00,CLR,,0.00,WeatherDisplay:10.37,2013-06-25 10:50:00,
2013-06-25 06:55:00,71.1,68.7,29.87,WSW,248,3.5,3.5,92,0.00,CLR,,0.00,WeatherDisplay:10.37,2013-06-25 10:55:00,
2013-06-25 07:00:00,71.4,68.6,29.87,SSW,202,3.5,3.5,91,0.00,CLR,,0.00,WeatherDisplay:10.37,2013-06-25 11:00:00,
2013-06-25 07:05:00,71.4,68.6,29.87,SW,225,4.6,4.6,91,0.00,CLR,,0.00,WeatherDisplay:10.37,2013-06-25 11:05:00,
2013-06-25 07:10:00,72.0,68.9,29.87,SW,225,4.6,4.6,90,0.00,CLR,,0.00,WeatherDisplay:10.37,2013-06-25 11:10:00,
2013-06-25 07:15:00,72.3,68.9,29.87,West,270,4.6,4.6,89,0.00,CLR,,0.00,WeatherDisplay:10.37,2013-06-25 11:15:00,
2013-06-25 07:20:00,72.3,68.9,29.87,SW,225,4.7,4.7,89,0.00,CLR,,0.00,WeatherDisplay:10.37,2013-06-25 11:20:00,
2013-06-25 07:25:00,72.7,68.9,29.88,South,180,4.6,4.6,88,0.00,CLR,,0.00,WeatherDisplay:10.37,2013-06-25 11:25:00,
2013-06-25 07:30:00,74.1,69.3,29.88,South,180,4.7,4.7,85,0.00,CLR,,0.00,WeatherDisplay:10.37,2013-06-25 11:30:00,
2013-06-25 07:35:00,73.9,69.4,29.88,SW,225,4.6,4.6,86,0.00,CLR,,0.00,WeatherDisplay:10.37,2013-06-25 11:35:00,
2013-06-25 07:40:00,74.1,69.6,29.88,SW,225,3.7,3.7,86,0.00,CLR,,0.00,WeatherDisplay:10.37,2013-06-25 11:40:00,
2013-06-25 07:45:00,74.7,69.5,29.88,SW,225,5.8,5.8,84,0.00,CLR,,0.00,WeatherDisplay:10.37,2013-06-25 11:45:00,
2013-06-25 07:50:00,75.4,69.9,29.88,SW,225,4.7,4.7,83,0.00,CLR,,0.00,WeatherDisplay:10.37,2013-06-25 11:50:00,
2013-06-25 07:55:00,75.0,69.8,29.88,SW,225,6.8,6.8,84,0.00,CLR,,0.00,WeatherDisplay:10.37,2013-06-25 11:55:00,
2013-06-25 08:00:00,75.4,69.9,29.89,SSW,202,5.8,5.8,83,0.00,CLR,,0.00,WeatherDisplay:10.37,2013-06-25 12:00:00,
2013-06-25 08:05:00,73.9,68.8,29.89,WSW,248,5.8,6.4,84,0.00,CLR,,0.00,WeatherDisplay:10.37,2013-06-25 12:05:00,
2013-06-25 08:10:00,74.7,69.2,29.89,SSW,202,6.9,6.9,83,0.00,CLR,,0.00,WeatherDisplay:10.37,2013-06-25 12:10:00,
2013-06-25 08:15:00,75.0,69.1,29.89,West,270,8.1,8.1,82,0.00,CLR,,0.00,WeatherDisplay:10.37,2013-06-25 12:15:00,
2013-06-25 08:20:00,75.4,69.2,29.89,SW,225,5.8,5.8,81,0.00,CLR,,0.00,WeatherDisplay:10.37,2013-06-25 12:20:00,
2013-06-25 08:25:00,75.9,69.3,29.89,SW,225,5.8,6.4,80,0.00,CLR,,0.00,WeatherDisplay:10.37,2013-06-25 12:25:00,
2013-06-25 08:30:00,76.1,69.5,29.89,SSW,202,6.9,6.9,80,0.00,CLR,,0.00,WeatherDisplay:10.37,2013-06-25 12:30:00,
2013-06-25 08:35:00,76.8,69.4,29.89,SW,225,9.9,9.9,78,0.00,CLR,,0.00,WeatherDisplay:10.37,2013-06-25 12:35:00,
2013-06-25 08:40:00,76.5,68.7,29.89,SW,225,8.1,8.1,77,0.00,CLR,,0.00,WeatherDisplay:10.37,2013-06-25 12:40:00,
2013-06-25 08:45:00,77.2,68.7,29.89,SW,225,10.4,10.5,75,0.00,CLR,,0.00,WeatherDisplay:10.37,2013-06-25 12:45:00,
2013-06-25 08:50:00,77.0,68.9,29.89,WSW,248,9.2,9.2,76,0.00,CLR,,0.00,WeatherDisplay:10.37,2013-06-25 12:50:00,
2013-06-25 08:55:00,77.5,69.3,29.89,SW,225,8.1,8.1,76,0.00,CLR,,0.00,WeatherDisplay:10.37,2013-06-25 12:55:00,
2013-06-25 09:00:00,77.5,69.3,29.90,SW,225,6.9,6.9,76,0.00,CLR,,0.00,WeatherDisplay:10.37,2013-06-25 13:00:00,
2013-06-25 09:05:00,78.1,69.1,29.90,WSW,248,8.1,8.1,74,0.00,CLR,,0.00,WeatherDisplay:10.37,2013-06-25 13:05:00,
2013-06-25 09:10:00,77.7,69.1,29.89,SW,225,7.3,7.3,75,0.00,CLR,,0.00,WeatherDisplay:10.37,2013-06-25 13:10:00,
2013-06-25 09:16:00,77.9,68.9,29.89,SW,225,8.1,8.1,74,0.00,CLR,,0.00,WeatherDisplay:10.37,2013-06-25 13:16:00,
2013-06-25 09:21:00,78.8,69.0,29.89,WSW,248,6.9,6.9,72,0.00,CLR,,0.00,WeatherDisplay:10.37,2013-06-25 13:21:00,
2013-06-25 09:26:00,78.6,69.2,29.89,NNW,338,5.8,5.8,73,0.00,CLR,,0.00,WeatherDisplay:10.37,2013-06-25 13:26:00,
2013-06-25 09:31:00,79.0,68.8,29.89,SW,225,8.8,8.8,71,0.00,CLR,,0.00,WeatherDisplay:10.37,2013-06-25 13:31:00,
2013-06-25 09:36:00,79.2,69.4,29.90,WSW,248,8.1,8.1,72,0.00,CLR,,0.00,WeatherDisplay:10.37,2013-06-25 13:36:00,
2013-06-25 09:41:00,78.3,68.5,29.90,SW,225,7.3,7.3,72,0.00,CLR,,0.00,WeatherDisplay:10.37,2013-06-25 13:41:00,
2013-06-25 09:46:00,78.1,68.7,29.90,SSW,202,8.1,8.1,73,0.00,CLR,,0.00,WeatherDisplay:10.37,2013-06-25 13:46:00,
2013-06-25 09:51:00,78.3,68.9,29.90,SW,225,5.8,5.8,73,0.00,CLR,,0.00,WeatherDisplay:10.37,2013-06-25 13:51:00,
2013-06-25 09:56:00,78.1,67.9,29.90,SW,225,13.8,13.8,71,0.00,CLR,,0.00,WeatherDisplay:10.37,2013-06-25 13:56:00,
2013-06-25 10:01:00,78.6,68.4,29.89,SW,225,12.7,12.7,71,0.00,CLR,,0.00,WeatherDisplay:10.37,2013-06-25 14:01:00,
2013-06-25 10:06:00,78.8,68.6,29.89,SW,225,10.4,10.4,71,0.00,CLR,,0.00,WeatherDisplay:10.37,2013-06-25 14:06:00,
2013-06-25 10:11:00,78.8,69.0,29.89,West,270,6.9,6.9,72,0.00,CLR,,0.00,WeatherDisplay:10.37,2013-06-25 14:11:00,
2013-06-25 10:16:00,78.8,68.6,29.89,WSW,248,12.7,12.7,71,0.00,CLR,,0.00,WeatherDisplay:10.37,2013-06-25 14:16:00,
2013-06-25 10:21:00,79.9,69.2,29.90,WSW,248,9.4,9.4,70,0.00,CLR,,0.00,WeatherDisplay:10.37,2013-06-25 14:21:00,
2013-06-25 10:26:00,79.7,69.0,29.90,WSW,248,11.5,11.5,70,0.00,CLR,,0.00,WeatherDisplay:10.37,2013-06-25 14:26:00,
2013-06-25 10:31:00,80.6,69.1,29.90,SW,225,6.3,6.3,68,0.00,SCT,,0.00,WeatherDisplay:10.37,2013-06-25 14:31:00,
2013-06-25 10:36:00,81.0,69.0,29.89,West,270,8.3,8.3,67,0.00,SCT,,0.00,WeatherDisplay:10.37,2013-06-25 14:36:00,
2013-06-25 10:41:00,80.6,68.2,29.89,West,270,13.5,13.5,66,0.00,SCT,,0.00,WeatherDisplay:10.37,2013-06-25 14:41:00,
2013-06-25 10:46:00,81.5,68.6,29.89,SW,225,9.2,9.2,65,0.00,SCT,,0.00,WeatherDisplay:10.37,2013-06-25 14:46:00,
2013-06-25 10:51:00,81.7,68.8,29.89,SSW,202,9.4,9.4,65,0.00,SCT,,0.00,WeatherDisplay:10.37,2013-06-25 14:51:00,
2013-06-25 10:56:00,81.3,68.4,29.89,SW,225,12.7,12.7,65,0.00,SCT,,0.00,WeatherDisplay:10.37,2013-06-25 14:56:00,
2013-06-25 11:01:00,81.5,69.0,29.88,SW,225,6.9,6.9,66,0.00,CLR,,0.00,WeatherDisplay:10.37,2013-06-25 15:01:00,
2013-06-25 11:06:00,81.7,68.8,29.88,SW,225,12.7,12.7,65,0.00,CLR,,0.00,WeatherDisplay:10.37,2013-06-25 15:06:00,
2013-06-25 11:11:00,81.1,68.7,29.88,WSW,248,10.4,10.4,66,0.00,CLR,,0.00,WeatherDisplay:10.37,2013-06-25 15:11:00,
2013-06-25 11:16:00,82.4,69.0,29.88,West,270,10.4,10.4,64,0.00,CLR,,0.00,WeatherDisplay:10.37,2013-06-25 15:16:00,
2013-06-25 11:21:00,83.3,69.4,29.88,West,270,8.1,8.1,63,0.00,CLR,,0.00,WeatherDisplay:10.37,2013-06-25 15:21:00,
2013-06-25 11:26:00,83.5,69.6,29.88,SSW,202,9.2,9.2,63,0.00,CLR,,0.00,WeatherDisplay:10.37,2013-06-25 15:26:00,
2013-06-25 11:31:00,83.5,69.1,29.88,West,270,7.3,7.3,62,0.00,CLR,,0.00,WeatherDisplay:10.37,2013-06-25 15:31:00,
2013-06-25 11:36:00,82.8,68.0,29.88,West,270,16.1,16.1,61,0.00,CLR,,0.00,WeatherDisplay:10.37,2013-06-25 15:36:00,
2013-06-25 11:41:00,84.0,69.1,29.88,SW,225,7.3,7.3,61,0.00,CLR,,0.00,WeatherDisplay:10.37,2013-06-25 15:41:00,
2013-06-25 11:46:00,83.8,68.4,29.88,WSW,248,9.2,9.2,60,0.00,CLR,,0.00,WeatherDisplay:10.37,2013-06-25 15:46:00,
2013-06-25 11:51:00,84.6,68.7,29.88,SW,225,9.2,9.2,59,0.00,CLR,,0.00,WeatherDisplay:10.37,2013-06-25 15:51:00,
2013-06-25 11:56:00,84.4,69.0,29.88,West,270,8.1,8.1,60,0.00,CLR,,0.00,WeatherDisplay:10.37,2013-06-25 15:56:00,
2013-06-25 12:01:00,83.7,68.8,29.88,West,270,9.2,9.2,61,0.00,CLR,,0.00,WeatherDisplay:10.37,2013-06-25 16:01:00,
2013-06-25 12:06:00,86.0,70.0,29.88,West,270,9.2,9.2,59,0.00,CLR,,0.00,WeatherDisplay:10.37,2013-06-25 16:06:00,
2013-06-25 12:11:00,86.5,68.9,29.87,West,270,9.2,9.2,56,0.00,CLR,,0.00,WeatherDisplay:10.37,2013-06-25 16:11:00,
2013-06-25 12:16:00,86.2,69.2,29.87,SSW,202,8.1,8.1,57,0.00,CLR,,0.00,WeatherDisplay:10.37,2013-06-25 16:16:00,
2013-06-25 12:21:00,87.6,70.0,29.87,SW,225,5.8,5.8,56,0.00,CLR,,0.00,WeatherDisplay:10.37,2013-06-25 16:21:00,
2013-06-25 12:26:00,86.4,69.4,29.87,SW,225,8.1,8.1,57,0.00,CLR,,0.00,WeatherDisplay:10.37,2013-06-25 16:26:00,
2013-06-25 12:31:00,84.6,68.2,29.87,WSW,248,11.5,11.5,58,0.00,CLR,,0.00,WeatherDisplay:10.37,2013-06-25 16:31:00,
2013-06-25 12:36:00,86.7,70.2,29.87,SW,225,9.2,9.2,58,0.00,CLR,,0.00,WeatherDisplay:10.37,2013-06-25 16:36:00,
2013-06-25 12:41:00,86.4,69.9,29.87,WSW,248,9.9,9.9,58,0.00,CLR,,0.00,WeatherDisplay:10.37,2013-06-25 16:41:00,
2013-06-25 12:46:00,86.9,69.8,29.87,SW,225,10.4,10.4,57,0.00,CLR,,0.00,WeatherDisplay:10.37,2013-06-25 16:46:00,
2013-06-25 12:51:00,86.9,69.3,29.87,SW,225,8.1,8.1,56,0.00,CLR,,0.00,WeatherDisplay:10.37,2013-06-25 16:51:00,
2013-06-25 12:56:00,86.5,69.5,29.87,WSW,248,10.4,10.4,57,0.00,CLR,,0.00,WeatherDisplay:10.37,2013-06-25 16:56:00,
2013-06-25 13:01:00,87.6,70.0,29.86,WSW,248,7.8,7.8,56,0.00,FEW,,0.00,WeatherDisplay:10.37,2013-06-25 17:01:00,
2013-06-25 13:06:00,88.0,69.8,29.86,SW,225,9.2,9.2,55,0.00,FEW,,0.00,WeatherDisplay:10.37,2013-06-25 17:06:00,
2013-06-25 13:11:00,87.4,69.8,29.85,WSW,248,6.9,6.9,56,0.00,FEW,,0.00,WeatherDisplay:10.37,2013-06-25 17:11:00,
2013-06-25 13:16:00,85.8,68.8,29.85,SW,225,12.7,12.7,57,0.00,FEW,,0.00,WeatherDisplay:10.37,2013-06-25 17:16:00,
2013-06-25 13:21:00,86.2,69.7,29.85,SW,225,11.5,11.5,58,0.00,FEW,,0.00,WeatherDisplay:10.37,2013-06-25 17:21:00,
2013-06-25 13:26:00,87.1,69.5,29.85,SSW,202,9.2,9.2,56,0.00,FEW,,0.00,WeatherDisplay:10.37,2013-06-25 17:26:00,
2013-06-25 13:31:00,88.2,70.5,29.85,WSW,248,8.1,8.1,56,0.00,FEW,,0.00,WeatherDisplay:10.37,2013-06-25 17:31:00,
2013-06-25 13:36:00,88.9,70.6,29.85,WSW,248,10.4,10.4,55,0.00,FEW,,0.00,WeatherDisplay:10.37,2013-06-25 17:36:00,
2013-06-25 13:41:00,90.3,71.4,29.85,SW,225,6.9,6.9,54,0.00,FEW,,0.00,WeatherDisplay:10.37,2013-06-25 17:41:00,
2013-06-25 13:46:00,89.4,71.1,29.85,WSW,248,9.2,9.2,55,0.00,FEW,,0.00,WeatherDisplay:10.37,2013-06-25 17:46:00,
2013-06-25 13:51:00,89.6,70.8,29.85,South,180,8.1,8.1,54,0.00,FEW,,0.00,WeatherDisplay:10.37,2013-06-25 17:51:00,
2013-06-25 13:56:00,90.9,71.4,29.85,SW,225,7.8,7.8,53,0.00,FEW,,0.00,WeatherDisplay:10.37,2013-06-25 17:56:00,
2013-06-25 14:01:00,90.1,71.2,29.84,SW,225,8.3,8.3,54,0.00,CLR,,0.00,WeatherDisplay:10.37,2013-06-25 18:01:00,
2013-06-25 14:06:00,89.4,70.6,29.84,SW,225,6.3,6.3,54,0.00,CLR,,0.00,WeatherDisplay:10.37,2013-06-25 18:06:00,
2013-06-25 14:11:00,90.9,71.4,29.83,SW,225,9.2,9.2,53,0.00,CLR,,0.00,WeatherDisplay:10.37,2013-06-25 18:11:00,
2013-06-25 14:16:00,90.5,71.0,29.83,SW,225,10.4,10.4,53,0.00,CLR,,0.00,WeatherDisplay:10.37,2013-06-25 18:16:00,
2013-06-25 14:21:00,90.3,70.8,29.83,SSW,202,8.8,8.8,53,0.00,CLR,,0.00,WeatherDisplay:10.37,2013-06-25 18:21:00,
2013-06-25 14:26:00,91.2,71.1,29.83,WSW,248,10.4,10.4,52,0.00,CLR,,0.00,WeatherDisplay:10.37,2013-06-25 18:26:00,
2013-06-25 14:31:00,90.3,70.8,29.83,SW,225,9.2,9.2,53,0.00,CLR,,0.00,WeatherDisplay:10.37,2013-06-25 18:31:00,
2013-06-25 14:36:00,90.3,70.3,29.83,SW,225,9.2,9.2,52,0.00,CLR,,0.00,WeatherDisplay:10.37,2013-06-25 18:36:00,
2013-06-25 14:41:00,91.6,70.3,29.83,WSW,248,11.5,11.5,50,0.00,CLR,,0.00,WeatherDisplay:10.37,2013-06-25 18:41:00,
2013-06-25 14:46:00,90.1,70.1,29.83,SW,225,11.5,11.5,52,0.00,CLR,,0.00,WeatherDisplay:10.37,2013-06-25 18:46:00,
2013-06-25 14:51:00,90.9,71.4,29.83,WSW,248,8.3,8.3,53,0.00,CLR,,0.00,WeatherDisplay:10.37,2013-06-25 18:51:00,
2013-06-25 14:56:00,90.7,71.2,29.83,SW,225,11.5,11.5,53,0.00,CLR,,0.00,WeatherDisplay:10.37,2013-06-25 18:56:00,
2013-06-25 15:01:00,90.9,70.8,29.83,WSW,248,9.2,9.2,52,0.00,CLR,,0.00,WeatherDisplay:10.37,2013-06-25 19:01:00,
2013-06-25 15:06:00,92.5,71.7,29.83,WSW,248,8.1,8.1,51,0.00,CLR,,0.00,WeatherDisplay:10.37,2013-06-25 19:06:00,
2013-06-25 15:11:00,90.1,71.2,29.82,SW,225,9.2,9.2,54,0.00,CLR,,0.00,WeatherDisplay:10.37,2013-06-25 19:11:00,
2013-06-25 15:16:00,89.1,70.8,29.82,SW,225,8.1,8.1,55,0.00,CLR,,0.00,WeatherDisplay:10.37,2013-06-25 19:16:00,
2013-06-25 15:21:00,89.6,70.8,29.82,WSW,248,8.1,8.1,54,0.00,CLR,,0.00,WeatherDisplay:10.37,2013-06-25 19:21:00,
2013-06-25 15:26:00,90.3,70.8,29.82,SW,225,8.3,8.3,53,0.00,CLR,,0.00,WeatherDisplay:10.37,2013-06-25 19:26:00,
2013-06-25 15:31:00,88.9,70.6,29.82,SW,225,10.4,10.4,55,0.00,CLR,,0.00,WeatherDisplay:10.37,2013-06-25 19:31:00,
2013-06-25 15:36:00,90.9,70.8,29.82,SW,225,11.5,11.5,52,0.00,CLR,,0.00,WeatherDisplay:10.37,2013-06-25 19:36:00,
2013-06-25 15:41:00,90.5,71.0,29.82,SW,225,9.9,9.9,53,0.00,CLR,,0.00,WeatherDisplay:10.37,2013-06-25 19:41:00,
2013-06-25 15:46:00,90.3,71.4,29.82,West,270,11.5,11.5,54,0.00,CLR,,0.00,WeatherDisplay:10.37,2013-06-25 19:46:00,
2013-06-25 15:51:00,91.9,72.3,29.82,SSW,202,8.3,8.3,53,0.00,CLR,,0.00,WeatherDisplay:10.37,2013-06-25 19:51:00,
2013-06-25 15:56:00,92.1,71.9,29.82,SW,225,9.4,9.4,52,0.00,CLR,,0.00,WeatherDisplay:10.37,2013-06-25 19:56:00,
2013-06-25 16:01:00,91.2,71.1,29.81,West,270,12.7,12.7,52,0.00,SCT,,0.00,WeatherDisplay:10.37,2013-06-25 20:01:00,
2013-06-25 16:06:00,91.2,71.7,29.81,SW,225,10.9,10.9,53,0.00,SCT,,0.00,WeatherDisplay:10.37,2013-06-25 20:06:00,
2013-06-25 16:11:00,91.9,71.2,29.80,SW,225,10.4,10.4,51,0.00,SCT,,0.00,WeatherDisplay:10.37,2013-06-25 20:11:00,
2013-06-25 16:16:00,92.5,71.7,29.80,West,270,10.4,10.4,51,0.00,SCT,,0.00,WeatherDisplay:10.37,2013-06-25 20:16:00,
2013-06-25 16:21:00,91.4,70.7,29.79,SSW,202,10.4,10.4,51,0.00,SCT,,0.00,WeatherDisplay:10.37,2013-06-25 20:21:00,
2013-06-25 16:26:00,92.1,72.5,29.79,SSW,202,7.3,7.3,53,0.00,SCT,,0.00,WeatherDisplay:10.37,2013-06-25 20:26:00,
2013-06-25 16:31:00,91.0,71.5,29.79,SW,225,11.5,11.5,53,0.00,SCT,,0.00,WeatherDisplay:10.37,2013-06-25 20:31:00,
2013-06-25 16:36:00,90.7,70.7,29.79,SW,225,11.5,11.5,52,0.00,SCT,,0.00,WeatherDisplay:10.37,2013-06-25 20:36:00,
2013-06-25 16:41:00,91.6,71.5,29.79,SW,225,8.1,8.1,52,0.00,SCT,,0.00,WeatherDisplay:10.37,2013-06-25 20:41:00,
2013-06-25 16:46:00,91.4,71.3,29.79,West,270,13.8,13.8,52,0.00,SCT,,0.00,WeatherDisplay:10.37,2013-06-25 20:46:00,
2013-06-25 16:51:00,91.6,71.5,29.79,SW,225,9.2,9.2,52,0.00,SCT,,0.00,WeatherDisplay:10.37,2013-06-25 20:51:00,
2013-06-25 16:56:00,91.6,72.0,29.79,SW,225,8.1,8.1,53,0.00,SCT,,0.00,WeatherDisplay:10.37,2013-06-25 20:56:00,
2013-06-25 17:01:00,92.5,72.3,29.78,West,270,8.1,8.1,52,0.00,FEW,,0.00,WeatherDisplay:10.37,2013-06-25 21:01:00,
2013-06-25 17:06:00,91.4,71.9,29.78,SW,225,11.5,11.5,53,0.00,FEW,,0.00,WeatherDisplay:10.37,2013-06-25 21:06:00,
2013-06-25 17:11:00,91.2,71.7,29.77,SSW,202,8.1,8.1,53,0.00,FEW,,0.00,WeatherDisplay:10.37,2013-06-25 21:11:00,
2013-06-25 17:16:00,90.7,71.8,29.77,WSW,248,8.1,8.1,54,0.00,FEW,,0.00,WeatherDisplay:10.37,2013-06-25 21:16:00,
2013-06-25 17:21:00,91.6,72.0,29.77,SW,225,6.9,6.9,53,0.00,FEW,,0.00,WeatherDisplay:10.37,2013-06-25 21:21:00,
2013-06-25 17:26:00,91.4,71.9,29.76,SSW,202,10.4,10.4,53,0.00,FEW,,0.00,WeatherDisplay:10.37,2013-06-25 21:26:00,
2013-06-25 17:31:00,90.9,71.4,29.76,SSW,202,8.1,8.1,53,0.00,FEW,,0.00,WeatherDisplay:10.37,2013-06-25 21:31:00,
2013-06-25 17:36:00,91.2,71.1,29.74,SW,225,8.1,8.1,52,0.00,FEW,,0.00,WeatherDisplay:10.37,2013-06-25 21:36:00,
2013-06-25 17:41:00,91.2,71.7,29.74,SW,225,9.2,9.2,53,0.00,FEW,,0.00,WeatherDisplay:10.37,2013-06-25 21:41:00,
2013-06-25 17:46:00,91.2,71.7,29.74,SSW,202,11.5,11.5,53,0.00,FEW,,0.00,WeatherDisplay:10.37,2013-06-25 21:46:00,
2013-06-25 17:51:00,91.0,70.9,29.74,WSW,248,10.9,10.9,52,0.00,FEW,,0.00,WeatherDisplay:10.37,2013-06-25 21:51:00,
2013-06-25 17:56:00,90.3,70.8,29.74,WSW,248,10.4,10.4,53,0.00,FEW,,0.00,WeatherDisplay:10.37,2013-06-25 21:56:00,
2013-06-25 18:01:00,90.0,70.6,29.75,SW,225,12.7,12.7,53,0.00,CLR,,0.00,WeatherDisplay:10.37,2013-06-25 22:01:00,
2013-06-25 18:06:00,90.0,70.6,29.75,SSW,202,11.9,11.9,53,0.00,CLR,,0.00,WeatherDisplay:10.37,2013-06-25 22:06:00,
2013-06-25 18:11:00,90.0,71.1,29.76,SSW,202,8.1,8.1,54,0.00,CLR,,0.00,WeatherDisplay:10.37,2013-06-25 22:11:00,
2013-06-25 18:16:00,90.3,71.4,29.76,SW,225,9.4,9.4,54,0.00,CLR,,0.00,WeatherDisplay:10.37,2013-06-25 22:16:00,
2013-06-25 18:21:00,89.8,71.5,29.76,SW,225,6.9,6.9,55,0.00,CLR,,0.00,WeatherDisplay:10.37,2013-06-25 22:21:00,
2013-06-25 18:26:00,90.1,71.2,29.76,SW,225,6.9,6.9,54,0.00,CLR,,0.00,WeatherDisplay:10.37,2013-06-25 22:26:00,
2013-06-25 18:31:00,89.1,70.3,29.76,SW,225,10.4,10.4,54,0.00,CLR,,0.00,WeatherDisplay:10.37,2013-06-25 22:31:00,
2013-06-25 18:36:00,88.7,71.0,29.78,South,180,8.1,8.1,56,0.00,CLR,,0.00,WeatherDisplay:10.37,2013-06-25 22:36:00,
2013-06-25 18:41:00,89.1,70.8,29.78,SW,225,11.4,11.4,55,0.00,CLR,,0.00,WeatherDisplay:10.37,2013-06-25 22:41:00,
2013-06-25 18:46:00,89.2,71.5,29.78,WSW,248,10.9,10.9,56,0.00,CLR,,0.00,WeatherDisplay:10.37,2013-06-25 22:46:00,
2013-06-25 18:51:00,88.9,71.2,29.78,SW,225,6.9,6.9,56,0.00,CLR,,0.00,WeatherDisplay:10.37,2013-06-25 22:51:00,
2013-06-25 18:56:00,88.7,71.0,29.78,SW,225,9.2,9.2,56,0.00,CLR,,0.00,WeatherDisplay:10.37,2013-06-25 22:56:00,
2013-06-25 19:01:00,86.4,70.9,29.78,SW,225,6.9,6.9,60,0.00,CLR,,0.00,WeatherDisplay:10.37,2013-06-25 23:01:00,
2013-06-25 19:06:00,85.6,70.6,29.78,WSW,248,6.9,6.9,61,0.00,CLR,,0.00,WeatherDisplay:10.37,2013-06-25 23:06:00,
2013-06-25 19:11:00,84.2,70.2,29.81,East,90,8.1,8.1,63,0.00,CLR,,0.00,WeatherDisplay:10.37,2013-06-25 23:11:00,
2013-06-25 19:16:00,77.9,64.7,29.81,WNW,292,21.9,21.9,64,0.00,CLR,,0.00,WeatherDisplay:10.37,2013-06-25 23:16:00,
2013-06-25 19:21:00,74.7,62.6,29.84,West,270,20.7,20.7,66,0.00,CLR,,0.00,WeatherDisplay:10.37,2013-06-25 23:21:00,
2013-06-25 19:26:00,72.1,61.8,29.84,ESE,112,21.9,21.9,70,0.00,CLR,,0.00,WeatherDisplay:10.37,2013-06-25 23:26:00,
2013-06-25 19:31:00,70.2,62.6,29.84,NNE,22,26.5,26.5,77,0.00,BKN,,0.00,WeatherDisplay:10.37,2013-06-25 23:31:00,
2013-06-25 19:36:00,68.7,64.0,29.86,West,270,23.0,23.0,85,0.00,BKN,,0.00,WeatherDisplay:10.37,2013-06-25 23:36:00,
2013-06-25 19:41:00,66.0,64.2,29.86,WSW,248,11.5,11.5,94,0.05,RA,,0.06,WeatherDisplay:10.37,2013-06-25 23:41:00,
2013-06-25 19:46:00,66.6,65.1,29.81,ESE,112,2.3,2.3,95,0.08,RA,,0.09,WeatherDisplay:10.37,2013-06-25 23:46:00,
2013-06-25 19:51:00,66.6,65.1,29.81,SE,135,4.6,4.6,95,0.09,RA,,0.10,WeatherDisplay:10.37,2013-06-25 23:51:00,
2013-06-25 19:56:00,66.4,64.9,29.81,ESE,112,6.9,6.9,95,0.10,RA,,0.10,WeatherDisplay:10.37,2013-06-25 23:56:00,
2013-06-25 20:01:00,66.9,65.7,29.79,SSW,202,3.5,3.5,96,0.10,-RA,,0.10,WeatherDisplay:10.37,2013-06-26 00:01:00,
2013-06-25 20:06:00,67.1,65.9,29.79,SW,225,4.6,4.6,96,0.10,-RA,,0.10,WeatherDisplay:10.37,2013-06-26 00:06:00,
2013-06-25 20:11:00,66.9,65.7,29.80,WSW,248,2.7,2.7,96,0.10,-RA,,0.10,WeatherDisplay:10.37,2013-06-26 00:11:00,
2013-06-25 20:16:00,66.9,65.7,29.80,SW,225,2.3,2.3,96,0.10,-RA,,0.10,WeatherDisplay:10.37,2013-06-26 00:16:00,
2013-06-25 20:21:00,67.1,65.9,29.80,SW,225,4.6,4.6,96,0.11,-RA,,0.11,WeatherDisplay:10.37,2013-06-26 00:21:00,
2013-06-25 20:26:00,66.9,65.7,29.79,South,180,2.3,2.3,96,0.11,-RA,,0.11,WeatherDisplay:10.37,2013-06-26 00:26:00,
2013-06-25 20:31:00,67.1,65.9,29.79,East,90,1.7,1.7,96,0.12,-RA,,0.12,WeatherDisplay:10.37,2013-06-26 00:31:00,
2013-06-25 20:36:00,67.3,65.8,29.79,SE,135,5.8,5.8,95,0.12,-RA,,0.12,WeatherDisplay:10.37,2013-06-26 00:36:00,
2013-06-25 20:41:00,67.3,65.8,29.79,SE,135,3.5,3.5,95,0.07,-RA,,0.12,WeatherDisplay:10.37,2013-06-26 00:41:00,
2013-06-25 20:46:00,67.1,65.6,29.79,ESE,112,4.6,4.6,95,0.04,-RA,,0.12,WeatherDisplay:10.37,2013-06-26 00:46:00,
2013-06-25 20:51:00,67.1,65.6,29.79,SSE,158,5.3,5.3,95,0.03,-RA,,0.12,WeatherDisplay:10.37,2013-06-26 00:51:00,
2013-06-25 20:56:00,66.6,65.1,29.79,East,90,9.2,9.2,95,0.03,-RA,,0.13,WeatherDisplay:10.37,2013-06-26 00:56:00,
2013-06-25 21:01:00,66.6,65.4,29.78,East,90,5.8,5.8,96,0.03,-RA,,0.13,WeatherDisplay:10.37,2013-06-26 01:01:00,
2013-06-25 21:06:00,66.6,65.4,29.78,SW,225,4.6,4.6,96,0.03,-RA,,0.13,WeatherDisplay:10.37,2013-06-26 01:06:00,
2013-06-25 21:11:00,66.7,65.5,29.77,SSW,202,2.3,2.3,96,0.03,-RA,,0.13,WeatherDisplay:10.37,2013-06-26 01:11:00,
2013-06-25 21:16:00,66.9,65.7,29.77,WSW,248,2.7,2.7,96,0.03,-RA,,0.13,WeatherDisplay:10.37,2013-06-26 01:16:00,
2013-06-25 21:21:00,66.9,65.7,29.77,East,90,3.5,3.5,96,0.02,-RA,,0.13,WeatherDisplay:10.37,2013-06-26 01:21:00,
2013-06-25 21:26:00,66.9,65.7,29.78,ESE,112,4.6,4.6,96,0.02,-RA,,0.13,WeatherDisplay:10.37,2013-06-26 01:26:00,
2013-06-25 21:31:00,66.6,65.4,29.78,NNE,22,4.6,4.6,96,0.01,-RA,,0.13,WeatherDisplay:10.37,2013-06-26 01:31:00,
2013-06-25 21:36:00,66.6,65.4,29.78,NNW,338,2.7,2.7,96,0.01,-RA,,0.13,WeatherDisplay:10.37,2013-06-26 01:36:00,
2013-06-25 21:41:00,66.4,65.5,29.78,East,90,3.5,3.5,97,0.01,-RA,,0.13,WeatherDisplay:10.37,2013-06-26 01:41:00,
2013-06-25 21:46:00,66.4,65.5,29.79,ESE,112,3.5,3.5,97,0.01,-RA,,0.13,WeatherDisplay:10.37,2013-06-26 01:46:00,
2013-06-25 21:51:00,66.4,65.5,29.79,ESE,112,4.6,4.6,97,0.01,-RA,,0.13,WeatherDisplay:10.37,2013-06-26 01:51:00,
2013-06-25 21:56:00,66.2,65.3,29.79,ESE,112,2.3,2.3,97,0.00,-RA,,0.13,WeatherDisplay:10.37,2013-06-26 01:56:00,
2013-06-25 22:01:00,66.2,65.3,29.79,SW,225,2.3,2.3,97,0.00,CLR,,0.13,WeatherDisplay:10.37,2013-06-26 02:01:00,
2013-06-25 22:06:00,66.2,65.6,29.79,WSW,248,1.7,1.7,98,0.00,CLR,,0.13,WeatherDisplay:10.37,2013-06-26 02:06:00,
2013-06-25 22:11:00,66.0,65.4,29.79,SW,225,0.0,0.0,98,0.00,CLR,,0.13,WeatherDisplay:10.37,2013-06-26 02:11:00,
2013-06-25 22:16:00,66.0,65.4,29.79,SW,225,2.2,2.2,98,0.00,CLR,,0.13,WeatherDisplay:10.37,2013-06-26 02:16:00,
2013-06-25 22:21:00,66.0,65.4,29.79,SW,225,2.3,2.3,98,0.00,CLR,,0.13,WeatherDisplay:10.37,2013-06-26 02:21:00,
2013-06-25 22:26:00,65.8,65.2,29.79,WSW,248,2.3,2.3,98,0.00,CLR,,0.13,WeatherDisplay:10.37,2013-06-26 02:26:00,
2013-06-25 22:31:00,65.7,65.1,29.79,SW,225,3.7,3.7,98,0.00,CLR,,0.13,WeatherDisplay:10.37,2013-06-26 02:31:00,
2013-06-25 22:36:00,65.7,65.1,29.78,NW,315,1.1,1.1,98,0.00,CLR,,0.13,WeatherDisplay:10.37,2013-06-26 02:36:00,
2013-06-25 22:41:00,65.7,65.1,29.78,SSW,202,0.0,0.0,98,0.00,CLR,,0.13,WeatherDisplay:10.37,2013-06-26 02:41:00,
2013-06-25 22:46:00,65.8,65.2,29.78,SSW,202,2.3,2.5,98,0.00,CLR,,0.13,WeatherDisplay:10.37,2013-06-26 02:46:00,
2013-06-25 22:51:00,65.7,65.1,29.78,SW,225,3.5,3.5,98,0.00,CLR,,0.13,WeatherDisplay:10.37,2013-06-26 02:51:00,
2013-06-25 22:56:00,65.7,65.1,29.78,SW,225,2.3,2.3,98,0.00,CLR,,0.13,WeatherDisplay:10.37,2013-06-26 02:56:00,
2013-06-25 23:01:00,65.7,65.1,29.78,West,270,1.7,1.7,98,0.00,FEW,,0.13,WeatherDisplay:10.37,2013-06-26 03:01:00,
2013-06-25 23:03:00,65.7,65.1,29.78,West,270,1.1,1.4,98,0.00,FEW,,0.13,WeatherDisplay:10.37,2013-06-26 03:03:00,
2013-06-25 23:08:00,65.7,65.1,29.78,South,180,0.0,0.0,98,0.00,FEW,,0.13,WeatherDisplay:10.37,2013-06-26 03:08:00,
2013-06-25 23:13:00,65.8,65.2,29.78,ESE,112,2.3,2.3,98,0.00,FEW,,0.13,WeatherDisplay:10.37,2013-06-26 03:13:00,
2013-06-25 23:18:00,66.0,65.4,29.78,SE,135,2.3,2.4,98,0.00,FEW,,0.13,WeatherDisplay:10.37,2013-06-26 03:18:00,
2013-06-25 23:23:00,66.0,65.4,29.78,SE,135,2.3,2.3,98,0.00,FEW,,0.13,WeatherDisplay:10.37,2013-06-26 03:23:00,
2013-06-25 23:28:00,66.4,65.8,29.78,ESE,112,2.3,2.3,98,0.00,FEW,,0.13,WeatherDisplay:10.37,2013-06-26 03:28:00,
2013-06-25 23:33:00,66.4,65.8,29.78,ESE,112,1.7,1.7,98,0.00,FEW,,0.13,WeatherDisplay:10.37,2013-06-26 03:33:00,
2013-06-25 23:38:00,66.4,65.8,29.78,ESE,112,2.7,2.7,98,0.00,FEW,,0.13,WeatherDisplay:10.37,2013-06-26 03:38:00,
2013-06-25 23:43:00,66.6,65.7,29.78,SW,225,0.0,0.0,97,0.00,FEW,,0.13,WeatherDisplay:10.37,2013-06-26 03:43:00,
2013-06-25 23:48:00,66.4,65.5,29.78,West,270,0.0,0.0,97,0.00,FEW,,0.13,WeatherDisplay:10.37,2013-06-26 03:48:00,
2013-06-25 23:53:00,66.2,65.6,29.78,WSW,248,1.1,0.0,98,0.00,FEW,,0.13,WeatherDisplay:10.37,2013-06-26 03:53:00,
2013-06-25 23:58:00,66.2,65.6,29.79,NE,45,1.1,1.1,98,0.00,FEW,,0.13,WeatherDisplay:10.37,2013-06-26 03:58:00,